Time;durP1;ratioP1;P1;durP2;ratioP2;P2;SDS_P1;SDS_P2;PMS_P1;PMS_P2;Temp;Humidity;BMP_temperature;BMP_pressure;BME280_temperature;BME280_humidity;BME280_pressure;Samples;Min_cycle;Max_cycle;Signal;HPM_P1;HPM_P2
2022/05/18 00:00:27;;;;;;;5.70;4.67;;;19.50;99.90;;;;;;4981842;28;20929;-90
2022/05/18 00:02:58;;;;;;;5.23;4.43;;;19.50;99.90;;;;;;4987585;28;20184;-90
2022/05/18 00:05:24;;;;;;;7.03;4.30;;;19.40;99.90;;;;;;4985000;28;20503;-92
2022/05/18 00:07:50;;;;;;;4.40;4.00;;;19.40;99.90;;;;;;4979423;28;20442;-90
2022/05/18 00:10:17;;;;;;;4.50;4.00;;;19.40;99.90;;;;;;4979992;28;20465;-89
2022/05/18 00:12:48;;;;;;;4.57;4.10;;;19.40;99.90;;;;;;4980251;28;20537;-90
2022/05/18 00:15:16;;;;;;;5.23;4.37;;;19.30;99.90;;;;;;4997917;28;20810;-90
2022/05/18 00:17:42;;;;;;;4.80;3.80;;;19.30;99.90;;;;;;4981054;28;20446;-92
2022/05/18 00:20:09;;;;;;;3.30;3.00;;;19.30;99.90;;;;;;4980900;28;20434;-90
2022/05/18 00:22:50;;;;;;;9.00;3.37;;;19.30;99.90;;;;;;4997755;28;21028;-91
2022/05/18 00:25:17;;;;;;;8.17;3.20;;;19.30;99.90;;;;;;4998168;28;20489;-92
2022/05/18 00:27:43;;;;;;;5.60;4.03;;;19.30;99.90;;;;;;5013556;28;20430;-89
2022/05/18 00:30:11;;;;;;;5.60;4.17;;;19.30;99.90;;;;;;5018059;28;20422;-92
2022/05/18 00:32:36;;;;;;;4.37;3.70;;;19.30;99.90;;;;;;5000871;28;20458;-92
2022/05/18 00:35:03;;;;;;;4.17;3.67;;;19.30;99.90;;;;;;4999645;28;20445;-89
2022/05/18 00:37:29;;;;;;;4.50;3.80;;;19.30;99.90;;;;;;5017399;28;20276;-93
2022/05/18 00:39:54;;;;;;;7.27;4.23;;;19.30;99.90;;;;;;5000152;28;20520;-89
2022/05/18 00:42:22;;;;;;;7.00;3.43;;;19.30;99.90;;;;;;5017432;28;20573;-92
2022/05/18 00:44:48;;;;;;;5.33;3.40;;;19.30;99.90;;;;;;4999986;28;20328;-90
2022/05/18 00:47:14;;;;;;;4.27;3.87;;;19.30;99.90;;;;;;4999672;28;20427;-93
2022/05/18 00:49:42;;;;;;;8.63;3.90;;;19.30;99.90;;;;;;5017299;28;20446;-92
2022/05/18 00:52:08;;;;;;;5.07;4.13;;;19.30;99.90;;;;;;5017801;28;20437;-92
2022/05/18 00:54:35;;;;;;;4.50;3.63;;;19.30;99.90;;;;;;4999128;28;20432;-92
2022/05/18 00:57:08;;;;;;;5.33;3.70;;;19.30;99.90;;;;;;5026459;28;20429;-91
2022/05/18 00:59:49;;;;;;;6.70;3.63;;;19.30;99.90;;;;;;5010901;28;20830;-92
2022/05/18 01:02:17;;;;;;;4.70;4.00;;;19.30;99.90;;;;;;4999003;28;20438;-92
2022/05/18 01:04:44;;;;;;;5.90;4.40;;;19.30;99.90;;;;;;5017055;28;20465;-91
2022/05/18 01:07:15;;;;;;;3.90;3.47;;;19.30;99.90;;;;;;4998794;28;20503;-92
2022/05/18 01:09:44;;;;;;;3.93;3.50;;;19.30;99.90;;;;;;4999058;28;20969;-92
2022/05/18 01:12:13;;;;;;;7.00;4.10;;;19.30;99.90;;;;;;4998814;28;20960;-90
2022/05/18 01:14:47;;;;;;;4.40;3.70;;;19.30;99.90;;;;;;4998288;28;21034;-92
2022/05/18 01:17:17;;;;;;;3.57;3.03;;;19.20;99.90;;;;;;5015976;28;20460;-92
2022/05/18 01:19:48;;;;;;;3.07;2.77;;;19.20;99.90;;;;;;4999010;28;20424;-93
2022/05/18 01:22:50;;;;;;;6.47;3.33;;;19.20;99.90;;;;;;4999123;28;20458;-90
2022/05/18 01:25:53;;;;;;;2.83;2.53;;;19.20;99.90;;;;;;5015798;28;20911;-92
2022/05/18 01:28:23;;;;;;;5.47;2.40;;;19.20;99.90;;;;;;4999350;28;20470;-92
2022/05/18 01:30:49;;;;;;;4.50;2.50;;;19.10;99.90;;;;;;5000243;28;20423;-92
2022/05/18 01:33:17;;;;;;;2.80;2.27;;;19.10;99.90;;;;;;5018366;28;20826;-91
2022/05/18 01:35:45;;;;;;;2.50;2.30;;;19.10;99.90;;;;;;5017267;28;20198;-92
2022/05/18 01:38:12;;;;;;;2.30;2.00;;;19.10;99.90;;;;;;4999333;28;20452;-90
2022/05/18 01:41:09;;;;;;;1.90;1.77;;;19.10;99.90;;;;;;4999785;28;20417;-90
2022/05/18 01:43:43;;;;;;;2.53;2.33;;;19.10;99.90;;;;;;4999916;28;20457;-91
2022/05/18 01:46:13;;;;;;;3.30;1.90;;;19.00;99.90;;;;;;4999954;28;20418;-90
2022/05/18 01:48:44;;;;;;;2.20;2.00;;;19.00;99.90;;;;;;5017818;28;20479;-90
2022/05/18 01:51:12;;;;;;;2.80;2.60;;;19.00;99.90;;;;;;5017201;28;20409;-92
2022/05/18 01:53:38;;;;;;;4.33;2.40;;;18.90;99.90;;;;;;5000966;28;20452;-92
2022/05/18 01:56:04;;;;;;;3.67;2.40;;;18.90;99.90;;;;;;5003679;28;20413;-91
2022/05/18 01:58:31;;;;;;;4.47;2.67;;;18.90;99.90;;;;;;5002776;28;20204;-91
2022/05/18 02:00:56;;;;;;;2.40;2.07;;;18.90;99.90;;;;;;5022559;28;20444;-90
2022/05/18 02:03:23;;;;;;;4.90;2.20;;;18.80;99.90;;;;;;4997467;28;20879;-89
2022/05/18 02:05:51;;;;;;;2.60;1.77;;;18.80;99.90;;;;;;4996839;28;20743;-89
2022/05/18 02:08:16;;;;;;;2.70;2.13;;;18.80;99.90;;;;;;4997695;28;20977;-90
2022/05/18 02:10:44;;;;;;;3.10;2.50;;;18.70;99.90;;;;;;4998093;28;20467;-91
2022/05/18 02:13:10;;;;;;;3.27;2.47;;;18.70;99.90;;;;;;4997689;28;20211;-93
2022/05/18 02:15:36;;;;;;;2.40;1.90;;;18.70;99.90;;;;;;4997822;28;20479;-90
2022/05/18 02:18:02;;;;;;;3.00;2.10;;;18.70;99.90;;;;;;4997774;28;20453;-90
2022/05/18 02:20:28;;;;;;;2.10;1.90;;;18.70;99.90;;;;;;5015511;28;20173;-91
2022/05/18 02:22:53;;;;;;;2.20;1.93;;;18.70;99.90;;;;;;4997680;28;20437;-90
2022/05/18 02:25:20;;;;;;;2.30;2.10;;;18.60;99.90;;;;;;5015512;28;20448;-89
2022/05/18 02:27:46;;;;;;;3.30;2.30;;;18.60;99.90;;;;;;4998889;28;20287;-92
2022/05/18 02:30:14;;;;;;;4.00;2.03;;;18.60;99.90;;;;;;4978494;28;20414;-92
2022/05/18 02:32:40;;;;;;;2.37;1.60;;;18.60;99.90;;;;;;4978747;28;20437;-92
2022/05/18 02:35:06;;;;;;;4.03;2.00;;;18.50;99.90;;;;;;4978471;28;20443;-90
2022/05/18 02:37:33;;;;;;;2.10;1.90;;;18.50;99.90;;;;;;4995789;28;20200;-90
2022/05/18 02:39:59;;;;;;;3.90;2.33;;;18.50;99.90;;;;;;4978677;28;20431;-92
2022/05/18 02:42:25;;;;;;;2.90;1.87;;;18.40;99.90;;;;;;4996624;28;20433;-90
2022/05/18 02:44:50;;;;;;;4.67;1.97;;;18.40;99.90;;;;;;4996916;28;20476;-90
2022/05/18 02:47:17;;;;;;;2.40;2.20;;;18.40;99.90;;;;;;4978869;28;20282;-92
2022/05/18 02:49:43;;;;;;;2.60;1.60;;;18.40;99.90;;;;;;4978782;28;20207;-92
2022/05/18 02:52:09;;;;;;;1.97;1.77;;;18.40;99.90;;;;;;4995900;28;20433;-93
2022/05/18 02:57:19;;;;;;;2.40;1.73;;;18.30;99.90;;;;;;4995602;28;20203;-90
2022/05/18 02:59:46;;;;;;;1.80;1.70;;;18.30;99.90;;;;;;4978429;28;20888;-90
2022/05/18 03:02:12;;;;;;;2.77;2.00;;;18.30;99.90;;;;;;4979179;28;20472;-90
2022/05/18 03:04:38;;;;;;;2.50;1.70;;;18.30;99.90;;;;;;4979140;28;20469;-92
2022/05/18 03:07:04;;;;;;;2.37;1.70;;;18.30;99.90;;;;;;4978864;28;20965;-93
2022/05/18 03:09:29;;;;;;;3.50;1.67;;;18.30;99.90;;;;;;4979990;28;20183;-90
2022/05/18 03:11:56;;;;;;;3.20;1.80;;;18.20;99.90;;;;;;4978991;28;20457;-91
2022/05/18 03:14:23;;;;;;;3.97;1.80;;;18.20;99.90;;;;;;4979141;28;20438;-91
2022/05/18 03:16:49;;;;;;;4.90;1.93;;;18.20;99.90;;;;;;4980894;28;20462;-90
2022/05/18 03:19:15;;;;;;;1.90;1.50;;;18.20;99.90;;;;;;5001171;28;20429;-92
2022/05/18 03:24:26;;;;;;;2.20;1.77;;;18.20;99.90;;;;;;5004988;28;20500;-93
2022/05/18 03:26:52;;;;;;;2.17;1.27;;;18.20;99.90;;;;;;4995249;28;20515;-90
2022/05/18 03:29:18;;;;;;;3.30;2.07;;;18.30;99.90;;;;;;5000061;28;20468;-90
2022/05/18 03:31:46;;;;;;;2.47;1.67;;;18.30;99.90;;;;;;5017185;28;20453;-90
2022/05/18 03:34:12;;;;;;;4.30;1.80;;;18.30;99.90;;;;;;5000113;28;20198;-92
2022/05/18 03:36:38;;;;;;;1.77;1.53;;;18.30;99.90;;;;;;5000088;28;20437;-91
2022/05/18 03:39:05;;;;;;;2.60;1.53;;;18.20;99.90;;;;;;5000028;28;20195;-90
2022/05/18 03:41:34;;;;;;;2.97;1.70;;;18.30;99.90;;;;;;5000182;28;20507;-92
2022/05/18 03:44:00;;;;;;;3.20;1.50;;;18.30;99.90;;;;;;5000419;28;20474;-92
2022/05/18 03:46:26;;;;;;;2.00;1.77;;;18.30;99.90;;;;;;5000333;28;20413;-90
2022/05/18 03:48:52;;;;;;;1.97;1.47;;;18.30;99.90;;;;;;5000264;28;20575;-92
2022/05/18 03:51:17;;;;;;;2.03;1.93;;;18.30;99.90;;;;;;5000468;28;20180;-90
2022/05/18 03:53:43;;;;;;;2.63;1.73;;;18.40;99.90;;;;;;5000376;28;20443;-92
2022/05/18 03:56:11;;;;;;;1.97;1.53;;;18.30;99.90;;;;;;5000454;28;20270;-89
2022/05/18 03:58:37;;;;;;;2.80;1.70;;;18.40;99.90;;;;;;4999820;28;20571;-90
2022/05/18 04:01:08;;;;;;;1.50;1.40;;;18.40;99.90;;;;;;5018060;28;20881;-90
2022/05/18 04:03:35;;;;;;;2.27;1.70;;;18.40;99.90;;;;;;5000641;28;20527;-91
2022/05/18 04:06:01;;;;;;;3.20;1.70;;;18.40;99.90;;;;;;5017467;28;20793;-92
2022/05/18 04:08:27;;;;;;;2.73;1.37;;;18.40;99.90;;;;;;5001190;28;20456;-89
2022/05/18 04:10:54;;;;;;;3.63;1.33;;;18.40;99.90;;;;;;5000470;28;20404;-89
2022/05/18 04:13:27;;;;;;;2.17;1.40;;;18.40;99.90;;;;;;5019506;28;20199;-90
2022/05/18 04:15:55;;;;;;;2.23;1.90;;;18.40;99.90;;;;;;5001196;28;20517;-93
2022/05/18 04:18:22;;;;;;;2.10;1.50;;;18.40;99.90;;;;;;5000891;28;20479;-90
2022/05/18 04:20:52;;;;;;;1.60;1.50;;;18.50;99.90;;;;;;5001222;28;20426;-90
2022/05/18 04:23:18;;;;;;;4.50;1.50;;;18.50;99.90;;;;;;5018273;28;20930;-92
2022/05/18 04:25:45;;;;;;;3.13;2.20;;;18.50;99.90;;;;;;5000914;28;20903;-90
2022/05/18 04:28:14;;;;;;;2.20;1.27;;;18.60;99.90;;;;;;5009435;28;20523;-92
2022/05/18 04:30:45;;;;;;;2.57;1.60;;;18.60;99.90;;;;;;5000448;28;20420;-90
2022/05/18 04:33:14;;;;;;;3.40;1.53;;;18.60;99.90;;;;;;5017853;28;20451;-92
2022/05/18 04:35:40;;;;;;;1.40;1.20;;;18.60;99.90;;;;;;5000683;28;20420;-90
2022/05/18 04:38:06;;;;;;;2.70;1.67;;;18.50;99.90;;;;;;4998430;28;20584;-89
2022/05/18 04:40:32;;;;;;;2.50;1.53;;;18.50;99.90;;;;;;4997740;28;20527;-92
2022/05/18 04:42:58;;;;;;;3.87;1.50;;;18.50;99.90;;;;;;4999640;28;20476;-93
2022/05/18 04:45:24;;;;;;;3.03;1.67;;;18.50;99.90;;;;;;5002968;28;20888;-88
2022/05/18 04:47:50;;;;;;;2.70;1.83;;;18.50;99.90;;;;;;5016991;28;20243;-89
2022/05/18 04:50:18;;;;;;;1.20;1.03;;;18.50;99.90;;;;;;5017599;28;20416;-90
2022/05/18 04:52:44;;;;;;;21.87;9.73;;;18.50;99.90;;;;;;4998852;28;21036;-91
2022/05/18 04:55:10;;;;;;;2.00;1.70;;;18.50;99.90;;;;;;4999278;28;20424;-91
2022/05/18 04:57:36;;;;;;;2.00;1.37;;;18.50;99.90;;;;;;4991175;28;20444;-89
2022/05/18 05:00:05;;;;;;;3.80;1.70;;;18.60;99.90;;;;;;5008854;28;20434;-91
2022/05/18 05:02:34;;;;;;;1.43;1.33;;;18.50;99.90;;;;;;4986678;28;20210;-92
2022/05/18 05:04:59;;;;;;;1.50;1.20;;;18.50;99.90;;;;;;4994305;28;20528;-89
2022/05/18 05:07:25;;;;;;;1.83;1.20;;;18.60;99.90;;;;;;4994333;28;20441;-90
2022/05/18 05:09:51;;;;;;;4.60;1.57;;;18.60;99.90;;;;;;4983850;28;20273;-89
2022/05/18 05:12:18;;;;;;;2.20;1.60;;;18.60;99.90;;;;;;4985207;28;20211;-89
2022/05/18 05:14:44;;;;;;;2.00;1.30;;;18.60;99.90;;;;;;5007052;28;20538;-89
2022/05/18 05:17:10;;;;;;;1.77;1.10;;;18.60;99.90;;;;;;5015688;28;20535;-92
2022/05/18 05:19:36;;;;;;;3.53;1.63;;;18.60;99.90;;;;;;4981451;28;20466;-92
2022/05/18 05:22:03;;;;;;;1.97;1.40;;;18.50;99.90;;;;;;4999298;28;20432;-89
2022/05/18 05:24:29;;;;;;;1.63;1.53;;;18.50;99.90;;;;;;4995594;28;20480;-89
2022/05/18 05:26:55;;;;;;;3.37;1.40;;;18.60;99.90;;;;;;4987167;28;20977;-92
2022/05/18 05:29:21;;;;;;;1.47;1.10;;;18.60;99.90;;;;;;5002910;28;20447;-90
2022/05/18 05:31:47;;;;;;;4.67;1.57;;;18.60;99.90;;;;;;5003709;28;20194;-92
2022/05/18 05:34:14;;;;;;;1.20;1.10;;;18.60;99.90;;;;;;4996531;28;21004;-92
2022/05/18 05:36:40;;;;;;;1.20;1.00;;;18.60;99.90;;;;;;5014292;28;20429;-88
2022/05/18 05:39:06;;;;;;;2.90;1.53;;;18.50;99.90;;;;;;5006865;28;20780;-88
2022/05/18 05:41:31;;;;;;;1.40;1.20;;;18.40;99.90;;;;;;4996398;28;20656;-89
2022/05/18 05:43:57;;;;;;;1.10;1.00;;;18.30;99.90;;;;;;4997542;28;20211;-90
2022/05/18 05:46:27;;;;;;;1.30;1.20;;;18.30;99.90;;;;;;4997262;28;20396;-92
2022/05/18 05:48:54;;;;;;;1.90;1.37;;;18.20;99.90;;;;;;5011471;28;20270;-89
2022/05/18 05:51:23;;;;;;;2.15;1.10;;;18.20;99.90;;;;;;5008002;28;20899;-92
2022/05/18 05:53:50;;;;;;;2.90;1.47;;;18.30;99.90;;;;;;5011032;28;20197;-91
2022/05/18 05:56:17;;;;;;;2.17;1.17;;;18.30;99.90;;;;;;4995029;28;20406;-91
2022/05/18 05:58:44;;;;;;;1.83;1.20;;;18.40;99.90;;;;;;4994998;28;20798;-90
2022/05/18 06:01:12;;;;;;;1.73;1.13;;;18.30;99.90;;;;;;5010011;28;20848;-90
2022/05/18 06:03:38;;;;;;;1.33;1.00;;;18.30;99.90;;;;;;4992089;28;20464;-91
2022/05/18 06:06:05;;;;;;;2.53;1.20;;;18.30;99.90;;;;;;4995076;28;20432;-91
2022/05/18 06:08:32;;;;;;;3.07;1.40;;;18.30;99.90;;;;;;4987194;28;20456;-90
2022/05/18 06:10:59;;;;;;;1.17;1.07;;;18.40;99.90;;;;;;4997608;28;20490;-90
2022/05/18 06:13:26;;;;;;;1.50;1.23;;;18.40;99.90;;;;;;4990041;28;20460;-92
2022/05/18 06:15:52;;;;;;;1.30;1.00;;;18.40;99.90;;;;;;5008114;28;20494;-90
2022/05/18 06:18:18;;;;;;;5.10;0.90;;;18.40;99.50;;;;;;4992112;28;20811;-92
2022/05/18 06:20:47;;;;;;;1.03;0.97;;;18.30;99.90;;;;;;4992886;28;20415;-91
2022/05/18 06:23:14;;;;;;;2.80;1.30;;;18.40;99.60;;;;;;5006586;28;20995;-91
2022/05/18 06:25:39;;;;;;;0.80;0.80;;;18.40;98.90;;;;;;4992574;28;20490;-91
2022/05/18 06:28:07;;;;;;;5.30;1.23;;;18.50;98.90;;;;;;4992051;28;21041;-92
2022/05/18 06:30:32;;;;;;;0.80;0.60;;;18.50;98.20;;;;;;5009482;28;20195;-90
2022/05/18 06:32:58;;;;;;;2.50;1.00;;;18.50;97.00;;;;;;5011342;28;20439;-91
2022/05/18 06:35:24;;;;;;;0.90;0.77;;;18.60;96.90;;;;;;5012062;28;20586;-92
2022/05/18 06:37:50;;;;;;;1.47;1.00;;;18.60;96.50;;;;;;4994056;28;20755;-92
2022/05/18 06:40:17;;;;;;;1.37;1.00;;;18.60;95.90;;;;;;5000687;28;20194;-91
2022/05/18 06:42:43;;;;;;;0.73;0.70;;;18.60;96.00;;;;;;4989022;28;20488;-91
2022/05/18 06:45:11;;;;;;;4.80;1.17;;;18.60;95.20;;;;;;4974651;28;20478;-90
2022/05/18 06:47:37;;;;;;;2.00;0.90;;;18.60;95.50;;;;;;4993520;28;20417;-90
2022/05/18 06:50:05;;;;;;;1.27;0.80;;;18.60;95.80;;;;;;4984641;28;20444;-89
2022/05/18 06:52:31;;;;;;;2.10;0.90;;;18.70;95.70;;;;;;4993025;28;20981;-90
2022/05/18 06:54:57;;;;;;;5.40;1.43;;;18.70;95.80;;;;;;4995553;28;20447;-91
2022/05/18 06:57:22;;;;;;;4.33;1.00;;;18.80;94.80;;;;;;4990877;28;20207;-90
2022/05/18 06:59:48;;;;;;;1.07;0.97;;;18.80;93.80;;;;;;4996806;28;20437;-90
2022/05/18 07:02:14;;;;;;;1.27;1.00;;;18.90;94.20;;;;;;5015326;28;20261;-92
2022/05/18 07:04:40;;;;;;;0.80;0.80;;;18.90;93.40;;;;;;4999354;28;20217;-92
2022/05/18 07:07:05;;;;;;;3.00;1.20;;;18.90;93.80;;;;;;4992541;28;20196;-90
2022/05/18 07:09:32;;;;;;;1.10;0.97;;;18.90;93.60;;;;;;4992203;28;20197;-92
2022/05/18 07:11:57;;;;;;;1.07;0.70;;;19.00;93.10;;;;;;4995313;28;20207;-92
2022/05/18 07:14:26;;;;;;;1.00;0.90;;;19.00;94.30;;;;;;4995630;28;20528;-91
2022/05/18 07:16:53;;;;;;;1.43;0.60;;;19.10;92.30;;;;;;4993718;28;20608;-91
2022/05/18 07:19:19;;;;;;;3.80;0.87;;;19.10;90.70;;;;;;4994836;28;20465;-92
2022/05/18 07:21:47;;;;;;;1.20;0.90;;;19.00;90.60;;;;;;5003801;28;20408;-91
2022/05/18 07:24:14;;;;;;;3.00;0.80;;;19.10;90.20;;;;;;5011762;28;20436;-92
2022/05/18 07:26:41;;;;;;;5.90;1.00;;;19.20;90.80;;;;;;4981570;28;20202;-90
2022/05/18 07:29:07;;;;;;;1.20;0.93;;;19.30;90.40;;;;;;4989266;28;20468;-92
2022/05/18 07:34:18;;;;;;;1.67;1.00;;;19.40;87.20;;;;;;5005435;28;20806;-90
2022/05/18 07:36:44;;;;;;;1.10;1.00;;;19.50;88.30;;;;;;5005237;28;20460;-91
2022/05/18 07:39:11;;;;;;;1.87;1.07;;;19.50;87.30;;;;;;4997532;28;21014;-91
2022/05/18 07:41:37;;;;;;;1.60;1.10;;;19.50;86.80;;;;;;4986263;28;20969;-90
2022/05/18 07:44:03;;;;;;;8.53;1.63;;;19.50;86.30;;;;;;4998515;28;20577;-91
2022/05/18 07:46:29;;;;;;;3.50;1.10;;;19.60;86.60;;;;;;4995371;28;20431;-91
2022/05/18 07:48:55;;;;;;;2.07;0.90;;;19.70;84.00;;;;;;4997647;28;20472;-93
2022/05/18 07:51:21;;;;;;;1.60;0.97;;;19.80;84.70;;;;;;4998103;28;20192;-91
2022/05/18 07:53:47;;;;;;;2.10;0.97;;;19.80;83.00;;;;;;4999148;28;20435;-90
2022/05/18 07:56:13;;;;;;;1.20;1.10;;;19.90;81.00;;;;;;4996230;28;20438;-91
2022/05/18 07:58:40;;;;;;;1.70;1.13;;;19.90;82.20;;;;;;5018572;28;20259;-90
2022/05/18 08:01:08;;;;;;;0.73;0.63;;;20.00;82.70;;;;;;5018034;28;20408;-91
2022/05/18 08:03:34;;;;;;;2.13;1.23;;;20.00;86.70;;;;;;4999252;28;20542;-91
2022/05/18 08:06:00;;;;;;;0.70;0.50;;;20.10;84.20;;;;;;5014794;28;20466;-91
2022/05/18 08:08:26;;;;;;;0.90;0.60;;;20.10;84.10;;;;;;5014201;28;20475;-92
2022/05/18 08:16:21;;;;;;;1.87;0.80;;;20.30;83.60;;;;;;5009643;28;20566;-91
2022/05/18 08:18:48;;;;;;;1.33;0.80;;;20.30;89.40;;;;;;4994971;28;20527;-92
2022/05/18 08:21:14;;;;;;;0.85;0.85;;;20.30;93.00;;;;;;4997907;28;20707;-93
2022/05/18 08:23:40;;;;;;;1.43;0.70;;;20.30;90.30;;;;;;5017011;28;20221;-90
2022/05/18 08:26:07;;;;;;;0.90;0.70;;;20.30;92.40;;;;;;5019552;28;20467;-91
2022/05/18 08:28:34;;;;;;;2.77;0.80;;;20.40;92.60;;;;;;5010872;28;20210;-91
2022/05/18 08:31:00;;;;;;;0.63;0.63;;;20.40;94.70;;;;;;4987224;28;20435;-91
2022/05/18 08:33:28;;;;;;;3.13;0.83;;;20.40;93.10;;;;;;4981312;28;20463;-92
2022/05/18 08:35:54;;;;;;;6.90;1.30;;;20.40;94.80;;;;;;4977012;28;20530;-92
2022/05/18 08:38:20;;;;;;;1.13;0.80;;;20.40;90.80;;;;;;4974759;28;21248;-90
2022/05/18 08:40:51;;;;;;;3.63;0.60;;;20.40;84.10;;;;;;5011461;28;20428;-89
2022/05/18 08:43:34;;;;;;;1.00;0.50;;;20.50;84.80;;;;;;4995744;28;20509;-90
2022/05/18 08:46:08;;;;;;;1.57;0.97;;;20.50;88.10;;;;;;4994970;28;20479;-91
2022/05/18 08:49:10;;;;;;;0.70;0.70;;;20.50;84.20;;;;;;4994146;28;20468;-90
2022/05/18 08:51:54;;;;;;;1.33;1.00;;;20.60;89.50;;;;;;4987911;28;20516;-91
2022/05/18 08:54:57;;;;;;;1.30;1.20;;;20.60;90.30;;;;;;5014226;28;20460;-92
2022/05/18 08:57:33;;;;;;;6.20;0.93;;;20.70;85.60;;;;;;5014951;28;20795;-92
2022/05/18 09:00:07;;;;;;;0.80;0.80;;;20.80;85.30;;;;;;5007633;28;20563;-90
2022/05/18 09:02:35;;;;;;;0.77;0.60;;;20.90;89.50;;;;;;5003259;28;20482;-92
2022/05/18 09:05:37;;;;;;;4.10;1.10;;;20.90;82.80;;;;;;4987479;28;20472;-91
2022/05/18 09:08:20;;;;;;;1.23;0.87;;;21.00;86.30;;;;;;4989406;28;20534;-90
2022/05/18 09:10:54;;;;;;;2.43;0.87;;;21.00;82.80;;;;;;4988418;28;20436;-91
2022/05/18 09:13:21;;;;;;;1.33;0.53;;;21.10;77.00;;;;;;5006642;28;20455;-91
2022/05/18 09:16:20;;;;;;;2.17;1.20;;;21.10;92.80;;;;;;5009469;28;20880;-89
2022/05/18 09:18:46;;;;;;;4.00;0.80;;;21.20;78.60;;;;;;4993635;28;20784;-93
2022/05/18 09:21:15;;;;;;;1.47;0.57;;;21.30;93.60;;;;;;4994223;28;20436;-92
2022/05/18 09:23:50;;;;;;;1.43;0.83;;;21.30;94.80;;;;;;4992505;28;20200;-93
2022/05/18 09:26:50;;;;;;;4.93;1.07;;;21.30;81.40;;;;;;4990702;28;20455;-93
2022/05/18 09:29:40;;;;;;;2.23;0.63;;;21.30;82.10;;;;;;5011834;28;20440;-89
2022/05/18 09:32:28;;;;;;;2.03;0.80;;;21.40;78.80;;;;;;4990515;28;20463;-90
2022/05/18 09:35:14;;;;;;;1.10;0.70;;;21.50;73.70;;;;;;4989779;28;20437;-92
2022/05/18 09:37:58;;;;;;;1.60;0.70;;;21.50;83.10;;;;;;4990223;28;20485;-94
2022/05/18 09:40:32;;;;;;;1.40;1.10;;;21.60;88.00;;;;;;4990497;28;20475;-90
2022/05/18 09:43:11;;;;;;;1.63;0.90;;;21.60;76.50;;;;;;4995972;28;20495;-90
2022/05/18 09:45:41;;;;;;;1.33;0.63;;;21.60;90.00;;;;;;4990040;28;20478;-92
2022/05/18 09:48:12;;;;;;;2.80;1.03;;;21.70;93.60;;;;;;4990070;28;20460;-90
2022/05/18 09:50:44;;;;;;;1.33;0.70;;;21.70;95.50;;;;;;4989048;28;20428;-93
2022/05/18 09:53:11;;;;;;;0.80;0.70;;;21.80;95.80;;;;;;4993052;28;20825;-93
2022/05/18 09:55:37;;;;;;;1.23;0.83;;;21.70;90.80;;;;;;4990333;28;20440;-89
2022/05/18 09:58:14;;;;;;;2.00;0.70;;;21.70;88.70;;;;;;5008418;28;20461;-93
2022/05/18 10:00:40;;;;;;;0.67;0.63;;;21.70;90.50;;;;;;5007165;28;20456;-90
2022/05/18 10:09:15;;;;;;;1.70;0.80;;;21.60;65.20;;;;;;5011098;28;20506;-94
2022/05/18 10:11:42;;;;;;;3.70;0.50;;;21.50;67.60;;;;;;5009819;28;20489;-89
2022/05/18 10:14:31;;;;;;;1.40;0.80;;;21.50;86.90;;;;;;5009105;28;20440;-90
2022/05/18 10:17:07;;;;;;;1.30;0.70;;;21.50;89.20;;;;;;4985360;28;20480;-92
2022/05/18 10:19:46;;;;;;;1.37;0.63;;;21.60;94.60;;;;;;4976880;28;20437;-92
2022/05/18 10:22:19;;;;;;;0.83;0.80;;;21.60;94.70;;;;;;5004536;28;20479;-89
2022/05/18 10:25:03;;;;;;;1.00;0.87;;;21.70;95.90;;;;;;4996347;28;20472;-90
2022/05/18 10:27:38;;;;;;;0.70;0.50;;;21.70;96.60;;;;;;5019425;28;20953;-90
2022/05/18 10:30:15;;;;;;;2.00;0.80;;;21.60;97.00;;;;;;5001850;28;20432;-92
2022/05/18 10:32:58;;;;;;;0.60;0.60;;;21.60;93.40;;;;;;5001939;28;20437;-95
2022/05/18 10:35:35;;;;;;;0.70;0.70;;;21.70;97.20;;;;;;5019711;28;20823;-93
2022/05/18 10:38:03;;;;;;;4.43;0.97;;;21.70;97.10;;;;;;5015886;28;20451;-95
2022/05/18 10:40:29;;;;;;;1.03;0.60;;;21.70;96.40;;;;;;5003452;28;20829;-88
2022/05/18 10:43:30;;;;;;;1.13;1.03;;;21.70;97.50;;;;;;5011449;28;20459;-96
2022/05/18 10:46:01;;;;;;;2.20;0.70;;;21.70;97.80;;;;;;5006459;28;20520;-89
2022/05/18 10:48:28;;;;;;;2.50;0.77;;;21.70;97.70;;;;;;5023449;28;20455;-92
2022/05/18 10:51:28;;;;;;;0.70;0.53;;;21.70;92.90;;;;;;4992773;28;20436;-93
2022/05/18 10:54:08;;;;;;;1.00;0.60;;;21.70;97.80;;;;;;4999117;28;20796;-90
2022/05/18 10:56:34;;;;;;;0.60;0.50;;;21.70;79.30;;;;;;5013648;28;20523;-90
2022/05/18 10:59:33;;;;;;;1.63;0.60;;;21.70;93.40;;;;;;5004577;28;20523;-94
2022/05/18 11:02:15;;;;;;;0.57;0.57;;;21.80;87.90;;;;;;5007099;28;20455;-90
2022/05/18 11:05:27;;;;;;;3.37;1.33;;;21.80;85.30;;;;;;5009305;28;20468;-90
2022/05/18 11:07:56;;;;;;;0.80;0.50;;;21.90;86.60;;;;;;4993801;28;21027;-94
2022/05/18 11:10:28;;;;;;;4.53;1.10;;;21.90;77.60;;;;;;4996309;28;20448;-90
2022/05/18 11:13:02;;;;;;;0.80;0.50;;;21.90;80.10;;;;;;4993929;28;20483;-93
2022/05/18 11:16:01;;;;;;;2.30;0.60;;;22.00;83.50;;;;;;4996488;28;20452;-93
2022/05/18 11:18:50;;;;;;;3.80;0.90;;;22.00;80.70;;;;;;4986080;28;20760;-94
2022/05/18 11:21:25;;;;;;;2.07;0.77;;;22.10;72.00;;;;;;5009409;28;20448;-89
2022/05/18 11:24:14;;;;;;;1.00;0.60;;;22.10;80.50;;;;;;4994568;28;20616;-91
2022/05/18 11:26:58;;;;;;;0.60;0.60;;;22.10;75.80;;;;;;5012580;28;20478;-95
2022/05/18 11:29:52;;;;;;;1.57;0.93;;;22.10;69.30;;;;;;5013371;28;20444;-89
2022/05/18 11:32:28;;;;;;;4.00;0.50;;;22.10;70.90;;;;;;4995725;28;20844;-90
2022/05/18 11:35:13;;;;;;;1.90;0.60;;;22.10;62.90;;;;;;4992257;28;20852;-94
2022/05/18 11:37:56;;;;;;;1.97;0.60;;;22.10;76.30;;;;;;4995309;28;20463;-94
2022/05/18 11:40:50;;;;;;;1.80;0.50;;;22.10;65.80;;;;;;4992667;28;20440;-90
2022/05/18 11:44:00;;;;;;;0.77;0.63;;;22.10;69.10;;;;;;4996877;28;20463;-90
2022/05/18 11:47:08;;;;;;;1.27;0.70;;;22.10;68.60;;;;;;4974631;28;20476;-88
2022/05/18 11:50:00;;;;;;;1.13;0.60;;;22.10;71.00;;;;;;5012058;28;20536;-91
2022/05/18 11:52:44;;;;;;;2.17;0.60;;;22.20;76.10;;;;;;5007919;28;20627;-92
2022/05/18 11:55:09;;;;;;;1.00;0.90;;;22.20;71.40;;;;;;4994375;28;20499;-94
2022/05/18 11:57:54;;;;;;;4.90;0.97;;;22.20;85.80;;;;;;4997863;28;20448;-90
2022/05/18 12:00:40;;;;;;;1.87;0.70;;;22.30;92.10;;;;;;4994571;28;20183;-93
2022/05/18 12:03:09;;;;;;;1.33;0.70;;;22.30;91.50;;;;;;4994666;28;20480;-92
2022/05/18 12:05:48;;;;;;;0.90;0.53;;;22.20;91.60;;;;;;5015058;28;20471;-93
2022/05/18 12:08:39;;;;;;;1.57;0.87;;;22.20;92.80;;;;;;4997687;28;20452;-94
2022/05/18 12:11:42;;;;;;;0.80;0.80;;;22.20;94.20;;;;;;4997102;28;20897;-92
2022/05/18 12:14:22;;;;;;;0.67;0.60;;;22.20;83.60;;;;;;5010134;28;20443;-93
2022/05/18 12:17:00;;;;;;;0.60;0.60;;;22.20;86.60;;;;;;4992240;28;20488;-92
2022/05/18 12:19:26;;;;;;;2.60;0.70;;;22.20;93.90;;;;;;4986205;28;20971;-93
2022/05/18 12:22:14;;;;;;;0.83;0.53;;;22.20;94.50;;;;;;4993029;28;20449;-92
2022/05/18 12:24:44;;;;;;;1.40;0.77;;;22.20;94.60;;;;;;4991621;28;20220;-93
2022/05/18 12:27:12;;;;;;;1.63;0.80;;;22.20;94.70;;;;;;4993588;28;20502;-93
2022/05/18 12:29:39;;;;;;;1.77;0.83;;;22.20;93.90;;;;;;4993656;28;20430;-93
2022/05/18 12:32:06;;;;;;;1.67;0.63;;;22.20;79.50;;;;;;4990408;28;20432;-91
2022/05/18 12:34:34;;;;;;;0.80;0.50;;;22.20;84.50;;;;;;4997514;28;20605;-92
2022/05/18 12:37:31;;;;;;;1.17;0.80;;;22.20;94.20;;;;;;4999610;28;20425;-91
2022/05/18 12:40:18;;;;;;;1.20;0.80;;;22.20;94.40;;;;;;4992902;28;20550;-92
2022/05/18 12:42:57;;;;;;;0.60;0.60;;;22.20;94.60;;;;;;4998485;28;20532;-93
2022/05/18 12:45:26;;;;;;;3.60;0.90;;;22.20;94.90;;;;;;4999078;28;20504;-92
2022/05/18 12:48:10;;;;;;;0.80;0.70;;;22.10;95.20;;;;;;4992961;28;20461;-93
2022/05/18 12:50:43;;;;;;;0.97;0.80;;;22.10;94.00;;;;;;4989551;28;20557;-93
2022/05/18 12:53:22;;;;;;;1.27;1.13;;;22.10;72.10;;;;;;4986588;28;20939;-91
2022/05/18 12:58:59;;;;;;;2.40;0.80;;;22.10;85.00;;;;;;4993913;28;20439;-95
2022/05/18 13:01:29;;;;;;;0.53;0.53;;;22.10;84.00;;;;;;4985893;28;20825;-94
2022/05/18 13:04:10;;;;;;;0.60;0.43;;;22.20;74.70;;;;;;4995780;28;20414;-94
2022/05/18 13:06:35;;;;;;;1.63;0.87;;;22.20;70.30;;;;;;4992131;28;20531;-95
2022/05/18 13:09:31;;;;;;;1.57;0.70;;;22.30;79.70;;;;;;4993899;28;20462;-93
2022/05/18 13:12:04;;;;;;;0.97;0.87;;;22.30;69.30;;;;;;4992827;28;20439;-91
2022/05/18 13:14:40;;;;;;;1.47;0.50;;;22.40;78.00;;;;;;4996123;28;20491;-91
2022/05/18 13:17:14;;;;;;;0.70;0.70;;;22.40;68.20;;;;;;5014638;28;20471;-91
2022/05/18 13:19:46;;;;;;;0.77;0.77;;;22.50;72.00;;;;;;5007413;28;20862;-93
2022/05/18 13:22:12;;;;;;;0.60;0.60;;;22.50;74.30;;;;;;4997105;28;20464;-92
2022/05/18 13:24:53;;;;;;;1.20;0.70;;;22.50;80.60;;;;;;5001322;28;20503;-93
2022/05/18 13:27:25;;;;;;;0.90;0.80;;;22.60;73.80;;;;;;5001684;28;20224;-91
2022/05/18 13:29:54;;;;;;;0.70;0.60;;;22.60;73.70;;;;;;4988950;28;20442;-92
2022/05/18 13:32:21;;;;;;;0.57;0.40;;;22.60;79.00;;;;;;4999732;28;21028;-93